Terminal Aerodrome Forecast
Issued by NWS Cleveland, OH

Home | Current Version | Previous Version | Graphics & Text | Print | Product List | Glossary Off
Versions: 1 2 3 4 5 6 7 8 9 10 11 12 13 14 15 16 17 18

000
FTUS41 KCLE 230314 AAA
TAFCAK
TAF AMD
KCAK 230314Z 2303/2324 36005KT 6SM HZ OVC012
      TEMPO 2303/2307 OVC006
     FM231200 01006KT P6SM SCT250=

USA.gov is the U.S. government's official web portal to all federal, state and local government web resources and services.